sensor_id;sensor_type;location;lat;lon;timestamp;temperature;humidity
21216;DHT22;10765;50.954;5.322;2024-03-06T00:00:07;7.10;1.00
21216;DHT22;10765;50.954;5.322;2024-03-06T00:02:34;7.00;94.50
21216;DHT22;10765;50.954;5.322;2024-03-06T00:05:01;7.00;99.90
21216;DHT22;10765;50.954;5.322;2024-03-06T00:07:30;7.00;99.90
21216;DHT22;10765;50.954;5.322;2024-03-06T00:09:57;6.90;93.20
21216;DHT22;10765;50.954;5.322;2024-03-06T00:12:23;6.80;98.60
21216;DHT22;10765;50.954;5.322;2024-03-06T00:14:50;6.80;99.90
21216;DHT22;10765;50.954;5.322;2024-03-06T00:17:17;6.70;99.90
21216;DHT22;10765;50.954;5.322;2024-03-06T00:19:44;6.60;99.90
21216;DHT22;10765;50.954;5.322;2024-03-06T00:22:11;6.50;1.00
21216;DHT22;10765;50.954;5.322;2024-03-06T00:24:39;6.40;1.00
21216;DHT22;10765;50.954;5.322;2024-03-06T00:27:06;6.30;46.40
21216;DHT22;10765;50.954;5.322;2024-03-06T00:29:33;6.20;1.00
21216;DHT22;10765;50.954;5.322;2024-03-06T00:32:03;6.20;99.90
21216;DHT22;10765;50.954;5.322;2024-03-06T00:34:30;6.30;1.00
21216;DHT22;10765;50.954;5.322;2024-03-06T00:36:57;6.30;1.00
21216;DHT22;10765;50.954;5.322;2024-03-06T00:39:24;6.40;99.90
21216;DHT22;10765;50.954;5.322;2024-03-06T00:41:53;6.50;1.00
21216;DHT22;10765;50.954;5.322;2024-03-06T00:44:20;6.60;99.90
21216;DHT22;10765;50.954;5.322;2024-03-06T00:46:47;6.60;99.90
21216;DHT22;10765;50.954;5.322;2024-03-06T00:49:14;6.60;99.90
21216;DHT22;10765;50.954;5.322;2024-03-06T00:51:41;6.70;99.90
21216;DHT22;10765;50.954;5.322;2024-03-06T00:54:08;6.60;18.80
21216;DHT22;10765;50.954;5.322;2024-03-06T00:56:37;6.60;99.90
21216;DHT22;10765;50.954;5.322;2024-03-06T00:59:06;6.60;99.90
21216;DHT22;10765;50.954;5.322;2024-03-06T01:01:32;6.60;99.90
21216;DHT22;10765;50.954;5.322;2024-03-06T01:04:00;6.50;99.90
21216;DHT22;10765;50.954;5.322;2024-03-06T01:06:27;6.50;99.90
21216;DHT22;10765;50.954;5.322;2024-03-06T01:08:54;6.40;1.00
21216;DHT22;10765;50.954;5.322;2024-03-06T01:11:22;6.30;97.00
21216;DHT22;10765;50.954;5.322;2024-03-06T01:13:49;6.10;99.90
21216;DHT22;10765;50.954;5.322;2024-03-06T01:16:17;6.00;99.90
21216;DHT22;10765;50.954;5.322;2024-03-06T01:18:44;5.90;99.90
21216;DHT22;10765;50.954;5.322;2024-03-06T01:21:11;5.80;99.90
21216;DHT22;10765;50.954;5.322;2024-03-06T01:23:38;5.70;99.90
21216;DHT22;10765;50.954;5.322;2024-03-06T01:26:05;5.60;1.00
21216;DHT22;10765;50.954;5.322;2024-03-06T01:28:32;5.50;1.00
21216;DHT22;10765;50.954;5.322;2024-03-06T01:30:59;5.40;1.00
21216;DHT22;10765;50.954;5.322;2024-03-06T01:33:27;5.40;99.90
21216;DHT22;10765;50.954;5.322;2024-03-06T01:35:54;5.30;99.90
21216;DHT22;10765;50.954;5.322;2024-03-06T01:38:21;5.30;99.90
21216;DHT22;10765;50.954;5.322;2024-03-06T01:40:48;5.20;99.90
21216;DHT22;10765;50.954;5.322;2024-03-06T01:43:21;5.20;99.90
21216;DHT22;10765;50.954;5.322;2024-03-06T01:45:49;5.20;1.00
21216;DHT22;10765;50.954;5.322;2024-03-06T01:48:16;5.00;99.90
21216;DHT22;10765;50.954;5.322;2024-03-06T01:50:46;5.00;1.00
21216;DHT22;10765;50.954;5.322;2024-03-06T01:53:13;4.90;1.00
21216;DHT22;10765;50.954;5.322;2024-03-06T01:55:42;4.90;99.90
21216;DHT22;10765;50.954;5.322;2024-03-06T01:58:09;4.80;99.90
21216;DHT22;10765;50.954;5.322;2024-03-06T02:00:37;4.80;1.00
21216;DHT22;10765;50.954;5.322;2024-03-06T02:03:04;4.80;1.00
21216;DHT22;10765;50.954;5.322;2024-03-06T02:05:32;4.70;1.00
21216;DHT22;10765;50.954;5.322;2024-03-06T02:08:00;4.70;1.00
21216;DHT22;10765;50.954;5.322;2024-03-06T02:10:28;4.70;1.00
21216;DHT22;10765;50.954;5.322;2024-03-06T02:12:55;4.60;99.90
21216;DHT22;10765;50.954;5.322;2024-03-06T02:15:22;4.60;1.00
21216;DHT22;10765;50.954;5.322;2024-03-06T02:17:49;4.60;1.00
21216;DHT22;10765;50.954;5.322;2024-03-06T02:20:16;4.60;1.00
21216;DHT22;10765;50.954;5.322;2024-03-06T02:22:44;4.60;99.90
21216;DHT22;10765;50.954;5.322;2024-03-06T02:25:12;4.50;99.90
21216;DHT22;10765;50.954;5.322;2024-03-06T02:27:40;4.50;99.90
21216;DHT22;10765;50.954;5.322;2024-03-06T02:30:08;4.60;99.90
21216;DHT22;10765;50.954;5.322;2024-03-06T02:32:35;4.60;32.10
21216;DHT22;10765;50.954;5.322;2024-03-06T02:35:02;4.60;1.00
21216;DHT22;10765;50.954;5.322;2024-03-06T02:37:33;4.80;1.00
21216;DHT22;10765;50.954;5.322;2024-03-06T02:40:02;4.80;24.10
21216;DHT22;10765;50.954;5.322;2024-03-06T02:42:32;4.80;1.00
21216;DHT22;10765;50.954;5.322;2024-03-06T02:44:59;4.70;1.00
21216;DHT22;10765;50.954;5.322;2024-03-06T02:47:26;4.70;1.00
21216;DHT22;10765;50.954;5.322;2024-03-06T02:49:53;4.70;1.00
21216;DHT22;10765;50.954;5.322;2024-03-06T02:52:20;4.60;99.90
21216;DHT22;10765;50.954;5.322;2024-03-06T02:54:47;4.50;1.00
21216;DHT22;10765;50.954;5.322;2024-03-06T02:57:15;4.50;1.00
21216;DHT22;10765;50.954;5.322;2024-03-06T02:59:42;4.40;99.90
21216;DHT22;10765;50.954;5.322;2024-03-06T03:02:09;4.30;1.00
21216;DHT22;10765;50.954;5.322;2024-03-06T03:04:36;4.30;99.90
21216;DHT22;10765;50.954;5.322;2024-03-06T03:07:03;4.20;1.00
21216;DHT22;10765;50.954;5.322;2024-03-06T03:09:31;4.10;99.90
21216;DHT22;10765;50.954;5.322;2024-03-06T03:11:57;4.10;1.00
21216;DHT22;10765;50.954;5.322;2024-03-06T03:14:26;4.10;1.00
21216;DHT22;10765;50.954;5.322;2024-03-06T03:16:53;4.10;1.00
21216;DHT22;10765;50.954;5.322;2024-03-06T03:19:20;4.10;99.90
21216;DHT22;10765;50.954;5.322;2024-03-06T03:21:47;4.00;51.50
21216;DHT22;10765;50.954;5.322;2024-03-06T03:24:14;4.00;49.00
21216;DHT22;10765;50.954;5.322;2024-03-06T03:26:41;4.00;1.00
21216;DHT22;10765;50.954;5.322;2024-03-06T03:29:08;4.00;1.00
21216;DHT22;10765;50.954;5.322;2024-03-06T03:31:36;3.90;99.90
21216;DHT22;10765;50.954;5.322;2024-03-06T03:34:04;3.90;99.90
21216;DHT22;10765;50.954;5.322;2024-03-06T03:36:32;3.90;69.60
21216;DHT22;10765;50.954;5.322;2024-03-06T03:38:59;3.80;99.90
21216;DHT22;10765;50.954;5.322;2024-03-06T03:41:25;3.70;99.90
21216;DHT22;10765;50.954;5.322;2024-03-06T03:43:52;3.70;1.00
21216;DHT22;10765;50.954;5.322;2024-03-06T03:46:19;3.70;99.90
21216;DHT22;10765;50.954;5.322;2024-03-06T03:48:47;3.70;1.00
21216;DHT22;10765;50.954;5.322;2024-03-06T03:51:15;3.60;1.00
21216;DHT22;10765;50.954;5.322;2024-03-06T03:53:42;3.60;1.00
21216;DHT22;10765;50.954;5.322;2024-03-06T03:56:09;3.50;1.00
21216;DHT22;10765;50.954;5.322;2024-03-06T03:58:36;3.50;1.00
21216;DHT22;10765;50.954;5.322;2024-03-06T04:01:04;3.40;1.00
21216;DHT22;10765;50.954;5.322;2024-03-06T04:03:31;3.40;99.90
21216;DHT22;10765;50.954;5.322;2024-03-06T04:06:00;3.30;99.90
21216;DHT22;10765;50.954;5.322;2024-03-06T04:08:27;3.40;99.90
21216;DHT22;10765;50.954;5.322;2024-03-06T04:10:54;3.30;99.90
21216;DHT22;10765;50.954;5.322;2024-03-06T04:13:21;3.20;99.90
21216;DHT22;10765;50.954;5.322;2024-03-06T04:15:48;3.30;99.90
21216;DHT22;10765;50.954;5.322;2024-03-06T04:18:14;3.30;99.90
21216;DHT22;10765;50.954;5.322;2024-03-06T04:20:41;3.20;1.00
21216;DHT22;10765;50.954;5.322;2024-03-06T04:23:09;3.20;1.00
21216;DHT22;10765;50.954;5.322;2024-03-06T04:25:36;3.20;99.90
21216;DHT22;10765;50.954;5.322;2024-03-06T04:28:05;3.20;99.90
21216;DHT22;10765;50.954;5.322;2024-03-06T04:30:33;3.20;1.00
21216;DHT22;10765;50.954;5.322;2024-03-06T04:33:00;3.20;99.90
21216;DHT22;10765;50.954;5.322;2024-03-06T04:35:26;3.20;1.00
21216;DHT22;10765;50.954;5.322;2024-03-06T04:37:53;3.20;35.10
21216;DHT22;10765;50.954;5.322;2024-03-06T04:40:22;3.20;1.00
21216;DHT22;10765;50.954;5.322;2024-03-06T04:42:50;3.20;1.00
21216;DHT22;10765;50.954;5.322;2024-03-06T04:45:17;3.20;1.00
21216;DHT22;10765;50.954;5.322;2024-03-06T04:47:44;3.20;1.00
21216;DHT22;10765;50.954;5.322;2024-03-06T04:50:12;3.20;1.00
21216;DHT22;10765;50.954;5.322;2024-03-06T04:52:40;3.20;99.90
21216;DHT22;10765;50.954;5.322;2024-03-06T04:55:08;3.10;99.90
21216;DHT22;10765;50.954;5.322;2024-03-06T04:57:38;3.00;99.90
21216;DHT22;10765;50.954;5.322;2024-03-06T05:00:07;3.00;1.00
21216;DHT22;10765;50.954;5.322;2024-03-06T05:02:34;2.90;99.90
21216;DHT22;10765;50.954;5.322;2024-03-06T05:05:03;3.00;99.90
21216;DHT22;10765;50.954;5.322;2024-03-06T05:07:30;3.00;99.90
21216;DHT22;10765;50.954;5.322;2024-03-06T05:09:58;2.90;1.00
21216;DHT22;10765;50.954;5.322;2024-03-06T05:12:25;2.90;1.00
21216;DHT22;10765;50.954;5.322;2024-03-06T05:14:54;2.90;99.90
21216;DHT22;10765;50.954;5.322;2024-03-06T05:17:21;2.80;1.00
21216;DHT22;10765;50.954;5.322;2024-03-06T05:19:49;2.70;1.00
21216;DHT22;10765;50.954;5.322;2024-03-06T05:22:16;2.60;1.00
21216;DHT22;10765;50.954;5.322;2024-03-06T05:24:43;2.50;99.90
21216;DHT22;10765;50.954;5.322;2024-03-06T05:27:10;2.50;99.90
21216;DHT22;10765;50.954;5.322;2024-03-06T05:29:39;2.40;99.90
21216;DHT22;10765;50.954;5.322;2024-03-06T05:32:07;2.50;99.90
21216;DHT22;10765;50.954;5.322;2024-03-06T05:34:34;2.50;1.00
21216;DHT22;10765;50.954;5.322;2024-03-06T05:37:01;2.60;99.90
21216;DHT22;10765;50.954;5.322;2024-03-06T05:39:30;2.60;99.90
21216;DHT22;10765;50.954;5.322;2024-03-06T05:42:00;2.50;30.90
21216;DHT22;10765;50.954;5.322;2024-03-06T05:44:29;2.50;1.00
21216;DHT22;10765;50.954;5.322;2024-03-06T05:46:57;2.50;99.90
21216;DHT22;10765;50.954;5.322;2024-03-06T05:49:25;2.50;1.00
21216;DHT22;10765;50.954;5.322;2024-03-06T05:51:52;2.50;1.00
21216;DHT22;10765;50.954;5.322;2024-03-06T05:54:20;2.40;1.00
21216;DHT22;10765;50.954;5.322;2024-03-06T05:56:47;2.40;1.00
21216;DHT22;10765;50.954;5.322;2024-03-06T05:59:15;2.40;1.00
21216;DHT22;10765;50.954;5.322;2024-03-06T06:01:42;2.50;1.00
21216;DHT22;10765;50.954;5.322;2024-03-06T06:04:10;2.50;1.00
21216;DHT22;10765;50.954;5.322;2024-03-06T06:06:38;2.40;99.90
21216;DHT22;10765;50.954;5.322;2024-03-06T06:09:05;2.40;99.90
21216;DHT22;10765;50.954;5.322;2024-03-06T06:11:33;2.40;1.00
21216;DHT22;10765;50.954;5.322;2024-03-06T06:14:00;2.30;99.90
21216;DHT22;10765;50.954;5.322;2024-03-06T06:16:34;2.30;99.90
21216;DHT22;10765;50.954;5.322;2024-03-06T06:19:01;2.30;99.90
21216;DHT22;10765;50.954;5.322;2024-03-06T06:21:28;2.30;99.90
21216;DHT22;10765;50.954;5.322;2024-03-06T06:23:56;2.40;1.00
21216;DHT22;10765;50.954;5.322;2024-03-06T06:26:23;2.40;1.00
21216;DHT22;10765;50.954;5.322;2024-03-06T06:28:50;2.50;99.90
21216;DHT22;10765;50.954;5.322;2024-03-06T06:31:17;2.50;1.00
21216;DHT22;10765;50.954;5.322;2024-03-06T06:33:44;2.60;99.90
21216;DHT22;10765;50.954;5.322;2024-03-06T06:36:12;2.50;1.00
21216;DHT22;10765;50.954;5.322;2024-03-06T06:38:39;2.70;99.90
21216;DHT22;10765;50.954;5.322;2024-03-06T06:41:07;2.80;99.90
21216;DHT22;10765;50.954;5.322;2024-03-06T06:43:34;2.90;13.60
21216;DHT22;10765;50.954;5.322;2024-03-06T06:46:01;2.80;99.90
21216;DHT22;10765;50.954;5.322;2024-03-06T06:48:30;3.00;1.00
21216;DHT22;10765;50.954;5.322;2024-03-06T06:50:59;3.00;1.00
21216;DHT22;10765;50.954;5.322;2024-03-06T06:53:28;3.00;1.00
21216;DHT22;10765;50.954;5.322;2024-03-06T06:55:54;3.10;1.00
21216;DHT22;10765;50.954;5.322;2024-03-06T06:58:23;3.00;1.00
21216;DHT22;10765;50.954;5.322;2024-03-06T07:00:52;2.80;1.00
21216;DHT22;10765;50.954;5.322;2024-03-06T07:03:19;3.00;1.00
21216;DHT22;10765;50.954;5.322;2024-03-06T07:05:47;3.00;99.90
21216;DHT22;10765;50.954;5.322;2024-03-06T07:08:14;3.20;1.00
21216;DHT22;10765;50.954;5.322;2024-03-06T07:10:40;3.20;99.90
21216;DHT22;10765;50.954;5.322;2024-03-06T07:13:07;3.50;99.90
21216;DHT22;10765;50.954;5.322;2024-03-06T07:15:36;4.00;99.90
21216;DHT22;10765;50.954;5.322;2024-03-06T07:18:03;4.80;1.00
21216;DHT22;10765;50.954;5.322;2024-03-06T07:20:30;5.60;1.00
21216;DHT22;10765;50.954;5.322;2024-03-06T07:22:57;6.00;1.00
21216;DHT22;10765;50.954;5.322;2024-03-06T07:25:24;6.20;1.00
21216;DHT22;10765;50.954;5.322;2024-03-06T07:27:51;6.40;1.00
21216;DHT22;10765;50.954;5.322;2024-03-06T07:30:18;7.30;1.00
21216;DHT22;10765;50.954;5.322;2024-03-06T07:32:46;8.30;99.90
21216;DHT22;10765;50.954;5.322;2024-03-06T07:35:13;9.40;1.00
21216;DHT22;10765;50.954;5.322;2024-03-06T07:37:40;10.20;99.90
21216;DHT22;10765;50.954;5.322;2024-03-06T07:40:10;11.00;99.90
21216;DHT22;10765;50.954;5.322;2024-03-06T07:42:37;11.80;62.60
21216;DHT22;10765;50.954;5.322;2024-03-06T07:45:05;12.50;1.00
21216;DHT22;10765;50.954;5.322;2024-03-06T07:47:32;13.10;1.00
21216;DHT22;10765;50.954;5.322;2024-03-06T07:50:01;13.60;1.00
21216;DHT22;10765;50.954;5.322;2024-03-06T07:52:28;14.30;1.00
21216;DHT22;10765;50.954;5.322;2024-03-06T07:54:54;14.90;1.00
21216;DHT22;10765;50.954;5.322;2024-03-06T07:57:21;15.40;1.00
21216;DHT22;10765;50.954;5.322;2024-03-06T07:59:48;15.70;1.00
21216;DHT22;10765;50.954;5.322;2024-03-06T08:02:17;16.20;1.00
21216;DHT22;10765;50.954;5.322;2024-03-06T08:04:44;16.30;1.00
21216;DHT22;10765;50.954;5.322;2024-03-06T08:07:12;16.60;1.00
21216;DHT22;10765;50.954;5.322;2024-03-06T08:09:39;17.60;1.00
21216;DHT22;10765;50.954;5.322;2024-03-06T08:12:06;18.10;1.00
21216;DHT22;10765;50.954;5.322;2024-03-06T08:14:33;18.50;1.00
21216;DHT22;10765;50.954;5.322;2024-03-06T08:17:00;18.80;1.00
21216;DHT22;10765;50.954;5.322;2024-03-06T08:19:28;18.90;1.00
21216;DHT22;10765;50.954;5.322;2024-03-06T08:21:55;19.30;1.00
21216;DHT22;10765;50.954;5.322;2024-03-06T08:24:23;18.50;1.00
21216;DHT22;10765;50.954;5.322;2024-03-06T08:26:50;18.90;1.00
21216;DHT22;10765;50.954;5.322;2024-03-06T08:29:17;19.80;1.00
21216;DHT22;10765;50.954;5.322;2024-03-06T08:31:44;19.60;1.00
21216;DHT22;10765;50.954;5.322;2024-03-06T08:34:10;19.10;1.00
21216;DHT22;10765;50.954;5.322;2024-03-06T08:36:37;18.60;1.00
21216;DHT22;10765;50.954;5.322;2024-03-06T08:39:04;18.60;1.00
21216;DHT22;10765;50.954;5.322;2024-03-06T08:41:33;20.30;1.00
21216;DHT22;10765;50.954;5.322;2024-03-06T08:44:00;21.10;1.00
21216;DHT22;10765;50.954;5.322;2024-03-06T08:46:28;20.90;1.00
21216;DHT22;10765;50.954;5.322;2024-03-06T08:48:54;22.60;1.00
21216;DHT22;10765;50.954;5.322;2024-03-06T08:51:21;23.30;1.00
21216;DHT22;10765;50.954;5.322;2024-03-06T08:53:48;22.00;1.00
21216;DHT22;10765;50.954;5.322;2024-03-06T08:56:15;23.20;1.00
21216;DHT22;10765;50.954;5.322;2024-03-06T08:58:43;24.40;1.00
21216;DHT22;10765;50.954;5.322;2024-03-06T09:01:10;25.30;1.00
21216;DHT22;10765;50.954;5.322;2024-03-06T09:03:38;25.40;1.00
21216;DHT22;10765;50.954;5.322;2024-03-06T09:06:05;24.60;1.00
21216;DHT22;10765;50.954;5.322;2024-03-06T09:08:32;25.20;1.00
21216;DHT22;10765;50.954;5.322;2024-03-06T09:10:59;25.40;1.00
21216;DHT22;10765;50.954;5.322;2024-03-06T09:13:26;26.20;1.00
21216;DHT22;10765;50.954;5.322;2024-03-06T09:15:54;25.20;1.00
21216;DHT22;10765;50.954;5.322;2024-03-06T09:18:21;24.50;1.00
21216;DHT22;10765;50.954;5.322;2024-03-06T09:20:48;25.60;1.00
21216;DHT22;10765;50.954;5.322;2024-03-06T09:23:15;26.00;1.00
21216;DHT22;10765;50.954;5.322;2024-03-06T09:25:42;24.80;1.00
21216;DHT22;10765;50.954;5.322;2024-03-06T09:28:09;26.00;1.00
21216;DHT22;10765;50.954;5.322;2024-03-06T09:30:36;25.00;1.00
21216;DHT22;10765;50.954;5.322;2024-03-06T09:33:04;24.50;1.00
21216;DHT22;10765;50.954;5.322;2024-03-06T09:35:32;26.00;1.00
21216;DHT22;10765;50.954;5.322;2024-03-06T09:37:59;26.10;1.00
21216;DHT22;10765;50.954;5.322;2024-03-06T09:40:26;26.10;1.00
21216;DHT22;10765;50.954;5.322;2024-03-06T09:42:55;27.60;1.00
21216;DHT22;10765;50.954;5.322;2024-03-06T09:45:21;28.20;1.00
21216;DHT22;10765;50.954;5.322;2024-03-06T09:47:49;26.70;1.00
21216;DHT22;10765;50.954;5.322;2024-03-06T09:50:23;26.30;1.00
21216;DHT22;10765;50.954;5.322;2024-03-06T09:52:51;26.80;1.00
21216;DHT22;10765;50.954;5.322;2024-03-06T09:55:19;27.70;1.00
21216;DHT22;10765;50.954;5.322;2024-03-06T09:57:47;28.90;1.00
21216;DHT22;10765;50.954;5.322;2024-03-06T10:00:14;29.10;1.00
21216;DHT22;10765;50.954;5.322;2024-03-06T10:02:48;29.20;1.00
21216;DHT22;10765;50.954;5.322;2024-03-06T10:05:23;28.10;1.00
21216;DHT22;10765;50.954;5.322;2024-03-06T10:07:50;27.80;1.00
21216;DHT22;10765;50.954;5.322;2024-03-06T10:10:18;28.20;1.00
21216;DHT22;10765;50.954;5.322;2024-03-06T10:12:45;29.50;1.00
21216;DHT22;10765;50.954;5.322;2024-03-06T10:15:13;30.60;1.00
21216;DHT22;10765;50.954;5.322;2024-03-06T10:17:40;29.60;1.00
21216;DHT22;10765;50.954;5.322;2024-03-06T10:20:27;28.70;1.00
21216;DHT22;10765;50.954;5.322;2024-03-06T10:22:54;28.50;1.00
21216;DHT22;10765;50.954;5.322;2024-03-06T10:25:22;28.10;1.00
21216;DHT22;10765;50.954;5.322;2024-03-06T10:28:03;28.10;1.00
21216;DHT22;10765;50.954;5.322;2024-03-06T10:30:31;28.00;1.00
21216;DHT22;10765;50.954;5.322;2024-03-06T10:32:58;28.10;1.00
21216;DHT22;10765;50.954;5.322;2024-03-06T10:35:28;28.00;1.00
21216;DHT22;10765;50.954;5.322;2024-03-06T10:37:55;28.70;1.00
21216;DHT22;10765;50.954;5.322;2024-03-06T10:40:23;29.80;1.00
21216;DHT22;10765;50.954;5.322;2024-03-06T10:42:50;30.70;1.00
21216;DHT22;10765;50.954;5.322;2024-03-06T10:45:20;30.60;1.00
21216;DHT22;10765;50.954;5.322;2024-03-06T10:47:50;28.10;1.00
21216;DHT22;10765;50.954;5.322;2024-03-06T10:50:18;28.70;1.00
21216;DHT22;10765;50.954;5.322;2024-03-06T10:52:49;28.50;1.00
21216;DHT22;10765;50.954;5.322;2024-03-06T10:55:20;29.20;1.00
21216;DHT22;10765;50.954;5.322;2024-03-06T10:57:49;29.00;1.00
21216;DHT22;10765;50.954;5.322;2024-03-06T11:00:19;26.40;1.00
21216;DHT22;10765;50.954;5.322;2024-03-06T11:02:46;24.50;1.00
21216;DHT22;10765;50.954;5.322;2024-03-06T11:05:15;25.80;1.00
21216;DHT22;10765;50.954;5.322;2024-03-06T11:07:42;23.40;1.00
21216;DHT22;10765;50.954;5.322;2024-03-06T11:10:11;21.70;1.00
21216;DHT22;10765;50.954;5.322;2024-03-06T11:12:42;23.00;1.00
21216;DHT22;10765;50.954;5.322;2024-03-06T11:15:14;27.60;1.00
21216;DHT22;10765;50.954;5.322;2024-03-06T11:17:41;31.20;1.00
21216;DHT22;10765;50.954;5.322;2024-03-06T11:20:12;31.60;1.00
21216;DHT22;10765;50.954;5.322;2024-03-06T11:23:02;30.80;1.00
21216;DHT22;10765;50.954;5.322;2024-03-06T11:25:57;32.60;1.00
21216;DHT22;10765;50.954;5.322;2024-03-06T11:28:27;31.40;1.00
21216;DHT22;10765;50.954;5.322;2024-03-06T11:30:57;30.80;1.00
21216;DHT22;10765;50.954;5.322;2024-03-06T11:33:34;32.20;1.00
21216;DHT22;10765;50.954;5.322;2024-03-06T11:36:23;33.10;1.00
21216;DHT22;10765;50.954;5.322;2024-03-06T11:38:52;33.60;1.00
21216;DHT22;10765;50.954;5.322;2024-03-06T11:41:21;32.70;1.00
21216;DHT22;10765;50.954;5.322;2024-03-06T11:43:51;33.30;1.00
21216;DHT22;10765;50.954;5.322;2024-03-06T11:46:19;34.00;1.00
21216;DHT22;10765;50.954;5.322;2024-03-06T11:48:52;35.10;1.00
21216;DHT22;10765;50.954;5.322;2024-03-06T11:51:20;34.60;1.00
21216;DHT22;10765;50.954;5.322;2024-03-06T11:53:49;33.00;1.00
21216;DHT22;10765;50.954;5.322;2024-03-06T11:56:17;32.80;1.00
21216;DHT22;10765;50.954;5.322;2024-03-06T11:58:47;30.90;1.00
21216;DHT22;10765;50.954;5.322;2024-03-06T12:01:14;29.00;1.00
21216;DHT22;10765;50.954;5.322;2024-03-06T12:03:41;28.00;1.00
21216;DHT22;10765;50.954;5.322;2024-03-06T12:06:09;29.60;1.00
21216;DHT22;10765;50.954;5.322;2024-03-06T12:08:36;29.30;1.00
21216;DHT22;10765;50.954;5.322;2024-03-06T12:11:05;28.90;1.00
21216;DHT22;10765;50.954;5.322;2024-03-06T12:13:33;28.50;1.00
21216;DHT22;10765;50.954;5.322;2024-03-06T12:16:05;25.70;1.00
21216;DHT22;10765;50.954;5.322;2024-03-06T12:18:32;22.20;1.00
21216;DHT22;10765;50.954;5.322;2024-03-06T12:21:01;21.90;1.00
21216;DHT22;10765;50.954;5.322;2024-03-06T12:23:28;23.80;1.00
21216;DHT22;10765;50.954;5.322;2024-03-06T12:26:05;22.60;1.00
21216;DHT22;10765;50.954;5.322;2024-03-06T12:28:33;20.50;1.00
21216;DHT22;10765;50.954;5.322;2024-03-06T12:31:02;19.30;1.00
21216;DHT22;10765;50.954;5.322;2024-03-06T12:33:31;18.40;1.00
21216;DHT22;10765;50.954;5.322;2024-03-06T12:36:04;18.10;1.00
21216;DHT22;10765;50.954;5.322;2024-03-06T12:38:32;17.60;1.00
21216;DHT22;10765;50.954;5.322;2024-03-06T12:40:59;17.50;1.00
21216;DHT22;10765;50.954;5.322;2024-03-06T12:43:26;17.80;1.00
21216;DHT22;10765;50.954;5.322;2024-03-06T12:45:54;18.20;1.00
21216;DHT22;10765;50.954;5.322;2024-03-06T12:48:23;19.30;1.00
21216;DHT22;10765;50.954;5.322;2024-03-06T12:50:51;19.00;1.00
21216;DHT22;10765;50.954;5.322;2024-03-06T12:53:20;19.30;1.00
21216;DHT22;10765;50.954;5.322;2024-03-06T12:55:47;18.90;1.00
21216;DHT22;10765;50.954;5.322;2024-03-06T12:58:14;20.40;1.00
21216;DHT22;10765;50.954;5.322;2024-03-06T13:00:41;25.10;1.00
21216;DHT22;10765;50.954;5.322;2024-03-06T13:03:09;27.20;1.00
21216;DHT22;10765;50.954;5.322;2024-03-06T13:05:36;28.00;1.00
21216;DHT22;10765;50.954;5.322;2024-03-06T13:08:05;30.00;1.00
21216;DHT22;10765;50.954;5.322;2024-03-06T13:10:32;27.00;1.00
21216;DHT22;10765;50.954;5.322;2024-03-06T13:13:01;23.20;1.00
21216;DHT22;10765;50.954;5.322;2024-03-06T13:15:28;21.20;1.00
21216;DHT22;10765;50.954;5.322;2024-03-06T13:17:54;20.20;1.00
21216;DHT22;10765;50.954;5.322;2024-03-06T13:20:21;18.80;1.00
21216;DHT22;10765;50.954;5.322;2024-03-06T13:22:51;18.10;1.00
21216;DHT22;10765;50.954;5.322;2024-03-06T13:25:19;17.40;1.00
21216;DHT22;10765;50.954;5.322;2024-03-06T13:27:46;17.40;1.00
21216;DHT22;10765;50.954;5.322;2024-03-06T13:30:13;18.40;1.00
21216;DHT22;10765;50.954;5.322;2024-03-06T13:32:40;19.90;1.00
21216;DHT22;10765;50.954;5.322;2024-03-06T13:35:08;20.50;1.00
21216;DHT22;10765;50.954;5.322;2024-03-06T13:37:37;23.10;1.00
21216;DHT22;10765;50.954;5.322;2024-03-06T13:40:05;27.00;1.00
21216;DHT22;10765;50.954;5.322;2024-03-06T13:42:34;28.80;1.00
21216;DHT22;10765;50.954;5.322;2024-03-06T13:45:01;30.00;1.00
21216;DHT22;10765;50.954;5.322;2024-03-06T13:47:28;30.00;1.00
21216;DHT22;10765;50.954;5.322;2024-03-06T13:49:55;31.40;1.00
21216;DHT22;10765;50.954;5.322;2024-03-06T13:52:22;32.10;1.00
21216;DHT22;10765;50.954;5.322;2024-03-06T13:54:49;32.50;1.00
21216;DHT22;10765;50.954;5.322;2024-03-06T13:57:16;31.50;1.00
21216;DHT22;10765;50.954;5.322;2024-03-06T13:59:43;31.70;1.00
21216;DHT22;10765;50.954;5.322;2024-03-06T14:02:10;31.60;1.00
21216;DHT22;10765;50.954;5.322;2024-03-06T14:04:37;31.10;1.00
21216;DHT22;10765;50.954;5.322;2024-03-06T14:07:04;32.00;1.00
21216;DHT22;10765;50.954;5.322;2024-03-06T14:09:31;33.90;1.00
21216;DHT22;10765;50.954;5.322;2024-03-06T14:11:58;33.30;1.00
21216;DHT22;10765;50.954;5.322;2024-03-06T14:14:25;31.50;1.00
21216;DHT22;10765;50.954;5.322;2024-03-06T14:16:53;32.10;1.00
21216;DHT22;10765;50.954;5.322;2024-03-06T14:19:20;32.70;1.00
21216;DHT22;10765;50.954;5.322;2024-03-06T14:21:48;32.10;1.00
21216;DHT22;10765;50.954;5.322;2024-03-06T14:24:15;28.40;1.00
21216;DHT22;10765;50.954;5.322;2024-03-06T14:26:41;26.20;1.00
21216;DHT22;10765;50.954;5.322;2024-03-06T14:29:08;27.60;1.00
21216;DHT22;10765;50.954;5.322;2024-03-06T14:31:36;27.60;1.00
21216;DHT22;10765;50.954;5.322;2024-03-06T14:34:04;27.40;1.00
21216;DHT22;10765;50.954;5.322;2024-03-06T14:36:32;26.40;1.00
21216;DHT22;10765;50.954;5.322;2024-03-06T14:38:59;24.30;1.00
21216;DHT22;10765;50.954;5.322;2024-03-06T14:41:26;21.80;1.00
21216;DHT22;10765;50.954;5.322;2024-03-06T14:43:53;19.50;1.00
21216;DHT22;10765;50.954;5.322;2024-03-06T14:46:20;17.60;53.60
21216;DHT22;10765;50.954;5.322;2024-03-06T14:48:47;16.70;99.90
21216;DHT22;10765;50.954;5.322;2024-03-06T14:51:15;16.30;99.90
21216;DHT22;10765;50.954;5.322;2024-03-06T14:53:42;16.10;99.90
21216;DHT22;10765;50.954;5.322;2024-03-06T14:56:09;15.80;99.90
21216;DHT22;10765;50.954;5.322;2024-03-06T14:58:37;15.70;99.90
21216;DHT22;10765;50.954;5.322;2024-03-06T15:01:05;15.70;99.90
21216;DHT22;10765;50.954;5.322;2024-03-06T15:03:32;15.80;99.90
21216;DHT22;10765;50.954;5.322;2024-03-06T15:05:59;16.00;99.90
21216;DHT22;10765;50.954;5.322;2024-03-06T15:08:27;15.90;99.90
21216;DHT22;10765;50.954;5.322;2024-03-06T15:10:54;15.80;99.90
21216;DHT22;10765;50.954;5.322;2024-03-06T15:13:22;15.40;99.90
21216;DHT22;10765;50.954;5.322;2024-03-06T15:15:50;15.10;99.90
21216;DHT22;10765;50.954;5.322;2024-03-06T15:18:17;15.00;99.90
21216;DHT22;10765;50.954;5.322;2024-03-06T15:20:44;14.80;99.90
21216;DHT22;10765;50.954;5.322;2024-03-06T15:23:11;14.60;99.90
21216;DHT22;10765;50.954;5.322;2024-03-06T15:25:42;14.30;99.90
21216;DHT22;10765;50.954;5.322;2024-03-06T15:28:09;14.20;99.90
21216;DHT22;10765;50.954;5.322;2024-03-06T15:30:36;14.00;99.90
21216;DHT22;10765;50.954;5.322;2024-03-06T15:33:04;13.90;99.90
21216;DHT22;10765;50.954;5.322;2024-03-06T15:35:33;13.80;99.90
21216;DHT22;10765;50.954;5.322;2024-03-06T15:38:00;13.60;99.90
21216;DHT22;10765;50.954;5.322;2024-03-06T15:40:27;13.50;99.90
21216;DHT22;10765;50.954;5.322;2024-03-06T15:42:55;13.30;99.90
21216;DHT22;10765;50.954;5.322;2024-03-06T15:45:22;13.30;99.90
21216;DHT22;10765;50.954;5.322;2024-03-06T15:47:49;13.30;99.90
21216;DHT22;10765;50.954;5.322;2024-03-06T15:50:16;13.20;99.90